sensor_id;sensor_type;location;lat;lon;timestamp;pressure;altitude;pressure_sealevel;temperature;humidity
30343;BME280;17145;49.902;8.680;'2023-12-07 00:59:26';100430;;;3;52
30343;BME280;17145;49.902;8.680;'2023-12-07 01:01:54';100440;;;3;52
30343;BME280;17145;49.902;8.680;'2023-12-07 01:04:21';100440;;;3;52
30343;BME280;17145;49.902;8.680;'2023-12-07 01:06:49';100440;;;3;52
30343;BME280;17145;49.902;8.680;'2023-12-07 01:09:16';100440;;;3;52
30343;BME280;17145;49.902;8.680;'2023-12-07 01:11:43';100440;;;3;52
30343;BME280;17145;49.902;8.680;'2023-12-07 01:14:11';100440;;;3;52
30343;BME280;17145;49.902;8.680;'2023-12-07 01:16:39';100440;;;3;52
30343;BME280;17145;49.902;8.680;'2023-12-07 01:19:06';100440;;;4;52
30343;BME280;17145;49.902;8.680;'2023-12-07 01:21:34';100450;;;3;52
30343;BME280;17145;49.902;8.680;'2023-12-07 01:24:01';100450;;;3;52
30343;BME280;17145;49.902;8.680;'2023-12-07 01:26:29';100450;;;3;52
30343;BME280;17145;49.902;8.680;'2023-12-07 01:28:56';100450;;;3;52
30343;BME280;17145;49.902;8.680;'2023-12-07 01:31:23';100450;;;3;52
30343;BME280;17145;49.902;8.680;'2023-12-07 01:33:51';100450;;;3;52
30343;BME280;17145;49.902;8.680;'2023-12-07 01:36:18';100450;;;3;53
30343;BME280;17145;49.902;8.680;'2023-12-07 01:38:46';100460;;;3;53
30343;BME280;17145;49.902;8.680;'2023-12-07 01:41:13';100460;;;3;53
30343;BME280;17145;49.902;8.680;'2023-12-07 01:43:40';100450;;;3;53
30343;BME280;17145;49.902;8.680;'2023-12-07 01:46:08';100460;;;3;53
30343;BME280;17145;49.902;8.680;'2023-12-07 01:48:35';100450;;;3;53
30343;BME280;17145;49.902;8.680;'2023-12-07 01:51:03';100450;;;3;53
30343;BME280;17145;49.902;8.680;'2023-12-07 01:53:30';100460;;;3;53
30343;BME280;17145;49.902;8.680;'2023-12-07 01:55:58';100460;;;3;52
30343;BME280;17145;49.902;8.680;'2023-12-07 01:58:25';100460;;;3;53
30343;BME280;17145;49.902;8.680;'2023-12-07 02:00:53';100460;;;3;53
30343;BME280;17145;49.902;8.680;'2023-12-07 02:03:20';100460;;;3;53
30343;BME280;17145;49.902;8.680;'2023-12-07 02:05:48';100470;;;2;53
30343;BME280;17145;49.902;8.680;'2023-12-07 02:08:15';100460;;;3;53
30343;BME280;17145;49.902;8.680;'2023-12-07 02:10:43';100460;;;3;53
30343;BME280;17145;49.902;8.680;'2023-12-07 02:13:10';100470;;;3;53
30343;BME280;17145;49.902;8.680;'2023-12-07 02:15:37';100470;;;3;53
30343;BME280;17145;49.902;8.680;'2023-12-07 02:18:05';100470;;;3;53
30343;BME280;17145;49.902;8.680;'2023-12-07 02:20:32';100470;;;3;53
30343;BME280;17145;49.902;8.680;'2023-12-07 02:23:00';100480;;;3;53
30343;BME280;17145;49.902;8.680;'2023-12-07 02:25:28';100480;;;3;52
30343;BME280;17145;49.902;8.680;'2023-12-07 02:27:55';100480;;;2;52
30343;BME280;17145;49.902;8.680;'2023-12-07 02:30:22';100490;;;2;52
30343;BME280;17145;49.902;8.680;'2023-12-07 02:32:50';100490;;;2;52
30343;BME280;17145;49.902;8.680;'2023-12-07 02:35:17';100490;;;2;52
30343;BME280;17145;49.902;8.680;'2023-12-07 02:37:44';100500;;;2;52
30343;BME280;17145;49.902;8.680;'2023-12-07 02:40:12';100500;;;2;52
30343;BME280;17145;49.902;8.680;'2023-12-07 02:42:40';100490;;;2;52
30343;BME280;17145;49.902;8.680;'2023-12-07 02:45:08';100500;;;2;52
30343;BME280;17145;49.902;8.680;'2023-12-07 02:47:37';100500;;;2;52
30343;BME280;17145;49.902;8.680;'2023-12-07 02:50:06';100500;;;2;52
30343;BME280;17145;49.902;8.680;'2023-12-07 02:52:37';100510;;;2;52
30343;BME280;17145;49.902;8.680;'2023-12-07 02:55:09';100520;;;2;53
30343;BME280;17145;49.902;8.680;'2023-12-07 02:57:37';100520;;;2;54
30343;BME280;17145;49.902;8.680;'2023-12-07 03:00:05';100520;;;2;54
30343;BME280;17145;49.902;8.680;'2023-12-07 03:02:33';100520;;;2;54
30343;BME280;17145;49.902;8.680;'2023-12-07 03:05:01';100520;;;2;54
30343;BME280;17145;49.902;8.680;'2023-12-07 03:07:30';100520;;;2;54
30343;BME280;17145;49.902;8.680;'2023-12-07 03:09:58';100520;;;2;54
30343;BME280;17145;49.902;8.680;'2023-12-07 03:12:26';100520;;;2;54
30343;BME280;17145;49.902;8.680;'2023-12-07 03:14:54';100520;;;2;54
30343;BME280;17145;49.902;8.680;'2023-12-07 03:17:29';100520;;;2;54
30343;BME280;17145;49.902;8.680;'2023-12-07 03:20:06';100520;;;2;54
30343;BME280;17145;49.902;8.680;'2023-12-07 03:22:41';100520;;;2;54
30343;BME280;17145;49.902;8.680;'2023-12-07 03:25:10';100510;;;2;54
30343;BME280;17145;49.902;8.680;'2023-12-07 03:27:39';100520;;;2;54
30343;BME280;17145;49.902;8.680;'2023-12-07 03:30:08';100510;;;2;54
30343;BME280;17145;49.902;8.680;'2023-12-07 03:32:36';100520;;;2;53
30343;BME280;17145;49.902;8.680;'2023-12-07 03:35:05';100520;;;2;53
30343;BME280;17145;49.902;8.680;'2023-12-07 03:37:36';100520;;;2;53
30343;BME280;17145;49.902;8.680;'2023-12-07 03:40:06';100520;;;2;53
30343;BME280;17145;49.902;8.680;'2023-12-07 03:42:34';100520;;;2;53
30343;BME280;17145;49.902;8.680;'2023-12-07 03:45:03';100520;;;2;53
30343;BME280;17145;49.902;8.680;'2023-12-07 03:47:30';100510;;;2;53
30343;BME280;17145;49.902;8.680;'2023-12-07 03:49:58';100510;;;2;52
30343;BME280;17145;49.902;8.680;'2023-12-07 03:52:25';100510;;;2;52
30343;BME280;17145;49.902;8.680;'2023-12-07 03:54:53';100510;;;2;52
30343;BME280;17145;49.902;8.680;'2023-12-07 03:57:21';100500;;;2;52
30343;BME280;17145;49.902;8.680;'2023-12-07 03:59:48';100500;;;2;52
30343;BME280;17145;49.902;8.680;'2023-12-07 04:02:15';100500;;;2;52
30343;BME280;17145;49.902;8.680;'2023-12-07 04:04:43';100500;;;1;52
30343;BME280;17145;49.902;8.680;'2023-12-07 04:07:10';100500;;;1;52
30343;BME280;17145;49.902;8.680;'2023-12-07 04:09:37';100500;;;1;52
30343;BME280;17145;49.902;8.680;'2023-12-07 04:12:06';100510;;;1;52
30343;BME280;17145;49.902;8.680;'2023-12-07 04:14:33';100510;;;1;52
30343;BME280;17145;49.902;8.680;'2023-12-07 04:17:01';100510;;;1;52
30343;BME280;17145;49.902;8.680;'2023-12-07 04:19:28';100520;;;1;52
30343;BME280;17145;49.902;8.680;'2023-12-07 04:21:55';100520;;;1;52
30343;BME280;17145;49.902;8.680;'2023-12-07 04:24:22';100520;;;1;52
30343;BME280;17145;49.902;8.680;'2023-12-07 04:26:50';100520;;;1;52
30343;BME280;17145;49.902;8.680;'2023-12-07 04:29:17';100520;;;1;52
30343;BME280;17145;49.902;8.680;'2023-12-07 04:31:45';100530;;;1;52
30343;BME280;17145;49.902;8.680;'2023-12-07 04:34:12';100530;;;1;52
30343;BME280;17145;49.902;8.680;'2023-12-07 04:36:40';100530;;;0;52
30343;BME280;17145;49.902;8.680;'2023-12-07 04:39:07';100530;;;1;52
30343;BME280;17145;49.902;8.680;'2023-12-07 04:41:35';100530;;;1;52
30343;BME280;17145;49.902;8.680;'2023-12-07 04:44:02';100530;;;1;52
30343;BME280;17145;49.902;8.680;'2023-12-07 04:46:29';100530;;;0;52
30343;BME280;17145;49.902;8.680;'2023-12-07 04:48:57';100530;;;1;52
30343;BME280;17145;49.902;8.680;'2023-12-07 04:51:24';100540;;;0;53
30343;BME280;17145;49.902;8.680;'2023-12-07 04:53:52';100530;;;1;53
30343;BME280;17145;49.902;8.680;'2023-12-07 04:56:23';100530;;;0;54
30343;BME280;17145;49.902;8.680;'2023-12-07 04:58:51';100530;;;0;54
30343;BME280;17145;49.902;8.680;'2023-12-07 05:01:22';100530;;;1;54
30343;BME280;17145;49.902;8.680;'2023-12-07 05:03:49';100540;;;1;54
30343;BME280;17145;49.902;8.680;'2023-12-07 05:06:17';100530;;;1;55
30343;BME280;17145;49.902;8.680;'2023-12-07 05:08:44';100530;;;0;56
30343;BME280;17145;49.902;8.680;'2023-12-07 05:11:12';100530;;;1;55
30343;BME280;17145;49.902;8.680;'2023-12-07 05:13:40';100530;;;1;56
30343;BME280;17145;49.902;8.680;'2023-12-07 05:16:08';100530;;;1;56
30343;BME280;17145;49.902;8.680;'2023-12-07 05:18:35';100530;;;1;56
30343;BME280;17145;49.902;8.680;'2023-12-07 05:21:03';100540;;;1;55
30343;BME280;17145;49.902;8.680;'2023-12-07 05:23:31';100540;;;1;56
30343;BME280;17145;49.902;8.680;'2023-12-07 05:25:59';100540;;;1;55
30343;BME280;17145;49.902;8.680;'2023-12-07 05:28:26';100530;;;1;55
30343;BME280;17145;49.902;8.680;'2023-12-07 05:30:54';100540;;;1;55
30343;BME280;17145;49.902;8.680;'2023-12-07 05:33:21';100540;;;1;55
30343;BME280;17145;49.902;8.680;'2023-12-07 05:35:49';100530;;;2;55
30343;BME280;17145;49.902;8.680;'2023-12-07 05:38:16';100540;;;1;55
30343;BME280;17145;49.902;8.680;'2023-12-07 05:40:44';100540;;;1;55
30343;BME280;17145;49.902;8.680;'2023-12-07 05:43:11';100540;;;1;56
30343;BME280;17145;49.902;8.680;'2023-12-07 05:45:39';100550;;;1;56
30343;BME280;17145;49.902;8.680;'2023-12-07 05:48:06';100550;;;1;56
30343;BME280;17145;49.902;8.680;'2023-12-07 05:50:33';100560;;;1;56
30343;BME280;17145;49.902;8.680;'2023-12-07 05:53:01';100550;;;1;56
30343;BME280;17145;49.902;8.680;'2023-12-07 05:55:28';100560;;;1;56
30343;BME280;17145;49.902;8.680;'2023-12-07 05:57:56';100560;;;1;56
30343;BME280;17145;49.902;8.680;'2023-12-07 06:00:23';100560;;;1;56
30343;BME280;17145;49.902;8.680;'2023-12-07 06:02:51';100560;;;1;56
30343;BME280;17145;49.902;8.680;'2023-12-07 06:05:18';100560;;;1;55
30343;BME280;17145;49.902;8.680;'2023-12-07 06:07:46';100560;;;2;55
30343;BME280;17145;49.902;8.680;'2023-12-07 06:10:13';100560;;;1;56
30343;BME280;17145;49.902;8.680;'2023-12-07 06:12:41';100560;;;1;56
30343;BME280;17145;49.902;8.680;'2023-12-07 06:15:09';100560;;;1;56
30343;BME280;17145;49.902;8.680;'2023-12-07 06:17:36';100560;;;1;56
30343;BME280;17145;49.902;8.680;'2023-12-07 06:20:05';100560;;;2;56
30343;BME280;17145;49.902;8.680;'2023-12-07 06:22:32';100560;;;1;57
30343;BME280;17145;49.902;8.680;'2023-12-07 06:25:00';100560;;;1;56
30343;BME280;17145;49.902;8.680;'2023-12-07 06:27:27';100560;;;1;56
30343;BME280;17145;49.902;8.680;'2023-12-07 06:29:54';100560;;;1;56
30343;BME280;17145;49.902;8.680;'2023-12-07 06:32:22';100560;;;2;56
30343;BME280;17145;49.902;8.680;'2023-12-07 06:34:49';100570;;;2;56
30343;BME280;17145;49.902;8.680;'2023-12-07 06:37:17';100570;;;2;57
30343;BME280;17145;49.902;8.680;'2023-12-07 06:39:45';100560;;;2;56
30343;BME280;17145;49.902;8.680;'2023-12-07 06:42:12';100560;;;2;56
30343;BME280;17145;49.902;8.680;'2023-12-07 06:44:39';100560;;;2;57
30343;BME280;17145;49.902;8.680;'2023-12-07 06:47:07';100560;;;2;57
30343;BME280;17145;49.902;8.680;'2023-12-07 06:49:34';100560;;;1;56
30343;BME280;17145;49.902;8.680;'2023-12-07 06:52:02';100560;;;2;55
30343;BME280;17145;49.902;8.680;'2023-12-07 06:54:29';100560;;;1;55
30343;BME280;17145;49.902;8.680;'2023-12-07 06:56:57';100560;;;1;55
30343;BME280;17145;49.902;8.680;'2023-12-07 06:59:24';100570;;;1;54
30343;BME280;17145;49.902;8.680;'2023-12-07 07:01:52';100580;;;1;54
30343;BME280;17145;49.902;8.680;'2023-12-07 07:04:19';100580;;;1;54
30343;BME280;17145;49.902;8.680;'2023-12-07 07:06:47';100570;;;1;54
30343;BME280;17145;49.902;8.680;'2023-12-07 07:09:14';100570;;;1;54
30343;BME280;17145;49.902;8.680;'2023-12-07 07:11:42';100570;;;1;54
30343;BME280;17145;49.902;8.680;'2023-12-07 07:14:09';100580;;;1;54
30343;BME280;17145;49.902;8.680;'2023-12-07 07:16:37';100580;;;1;54
30343;BME280;17145;49.902;8.680;'2023-12-07 07:19:04';100580;;;1;54
30343;BME280;17145;49.902;8.680;'2023-12-07 07:21:32';100580;;;1;54
30343;BME280;17145;49.902;8.680;'2023-12-07 07:23:59';100580;;;1;54
30343;BME280;17145;49.902;8.680;'2023-12-07 07:26:27';100580;;;1;54
30343;BME280;17145;49.902;8.680;'2023-12-07 07:28:54';100580;;;1;54
30343;BME280;17145;49.902;8.680;'2023-12-07 07:31:21';100580;;;1;54
30343;BME280;17145;49.902;8.680;'2023-12-07 07:33:49';100580;;;1;53
30343;BME280;17145;49.902;8.680;'2023-12-07 07:36:20';100580;;;1;54
30343;BME280;17145;49.902;8.680;'2023-12-07 07:38:48';100580;;;1;54
30343;BME280;17145;49.902;8.680;'2023-12-07 07:41:15';100590;;;0;54
30343;BME280;17145;49.902;8.680;'2023-12-07 07:43:43';100590;;;1;54
30343;BME280;17145;49.902;8.680;'2023-12-07 07:46:11';100600;;;1;54
30343;BME280;17145;49.902;8.680;'2023-12-07 07:48:39';100600;;;1;53
30343;BME280;17145;49.902;8.680;'2023-12-07 07:51:07';100600;;;1;54
30343;BME280;17145;49.902;8.680;'2023-12-07 07:53:34';100600;;;1;54
30343;BME280;17145;49.902;8.680;'2023-12-07 07:56:02';100600;;;1;54
30343;BME280;17145;49.902;8.680;'2023-12-07 07:58:29';100610;;;1;54
30343;BME280;17145;49.902;8.680;'2023-12-07 08:00:57';100610;;;1;54
30343;BME280;17145;49.902;8.680;'2023-12-07 08:03:24';100610;;;1;54
30343;BME280;17145;49.902;8.680;'2023-12-07 08:05:52';100610;;;1;54
30343;BME280;17145;49.902;8.680;'2023-12-07 08:08:19';100620;;;1;54
30343;BME280;17145;49.902;8.680;'2023-12-07 08:10:47';100620;;;1;54
30343;BME280;17145;49.902;8.680;'2023-12-07 08:13:14';100620;;;1;54
30343;BME280;17145;49.902;8.680;'2023-12-07 08:15:42';100620;;;1;54
30343;BME280;17145;49.902;8.680;'2023-12-07 08:18:09';100630;;;1;54
30343;BME280;17145;49.902;8.680;'2023-12-07 08:20:37';100630;;;1;54
30343;BME280;17145;49.902;8.680;'2023-12-07 08:23:05';100630;;;1;54
30343;BME280;17145;49.902;8.680;'2023-12-07 08:25:32';100630;;;0;54
30343;BME280;17145;49.902;8.680;'2023-12-07 08:28:00';100630;;;1;54
30343;BME280;17145;49.902;8.680;'2023-12-07 08:30:27';100640;;;1;54
30343;BME280;17145;49.902;8.680;'2023-12-07 08:32:55';100640;;;0;54
30343;BME280;17145;49.902;8.680;'2023-12-07 08:35:22';100640;;;1;54
30343;BME280;17145;49.902;8.680;'2023-12-07 08:37:50';100640;;;1;54
30343;BME280;17145;49.902;8.680;'2023-12-07 08:40:17';100640;;;1;55
30343;BME280;17145;49.902;8.680;'2023-12-07 08:42:45';100640;;;1;55
30343;BME280;17145;49.902;8.680;'2023-12-07 08:45:12';100640;;;1;55
30343;BME280;17145;49.902;8.680;'2023-12-07 08:47:39';100650;;;1;55
30343;BME280;17145;49.902;8.680;'2023-12-07 08:50:07';100640;;;1;55
30343;BME280;17145;49.902;8.680;'2023-12-07 08:52:35';100640;;;1;55
30343;BME280;17145;49.902;8.680;'2023-12-07 08:55:03';100630;;;1;55
30343;BME280;17145;49.902;8.680;'2023-12-07 08:57:31';100630;;;1;55
30343;BME280;17145;49.902;8.680;'2023-12-07 08:59:59';100630;;;1;55
30343;BME280;17145;49.902;8.680;'2023-12-07 09:02:26';100620;;;1;55
30343;BME280;17145;49.902;8.680;'2023-12-07 09:04:54';100620;;;1;55
30343;BME280;17145;49.902;8.680;'2023-12-07 09:07:21';100610;;;1;55
30343;BME280;17145;49.902;8.680;'2023-12-07 09:09:49';100610;;;1;55
30343;BME280;17145;49.902;8.680;'2023-12-07 09:12:16';100610;;;1;55
30343;BME280;17145;49.902;8.680;'2023-12-07 09:14:43';100600;;;1;55
30343;BME280;17145;49.902;8.680;'2023-12-07 09:17:12';100590;;;1;55
30343;BME280;17145;49.902;8.680;'2023-12-07 09:19:41';100590;;;1;55
30343;BME280;17145;49.902;8.680;'2023-12-07 09:22:10';100580;;;1;55
30343;BME280;17145;49.902;8.680;'2023-12-07 09:24:39';100580;;;2;55
30343;BME280;17145;49.902;8.680;'2023-12-07 09:27:06';100570;;;2;55
30343;BME280;17145;49.902;8.680;'2023-12-07 09:29:34';100570;;;1;55
30343;BME280;17145;49.902;8.680;'2023-12-07 09:32:02';100570;;;2;55
30343;BME280;17145;49.902;8.680;'2023-12-07 09:34:29';100570;;;2;55
30343;BME280;17145;49.902;8.680;'2023-12-07 09:36:57';100570;;;1;55
30343;BME280;17145;49.902;8.680;'2023-12-07 09:39:24';100580;;;2;55
30343;BME280;17145;49.902;8.680;'2023-12-07 09:41:51';100570;;;2;55
30343;BME280;17145;49.902;8.680;'2023-12-07 09:44:19';100570;;;2;55
30343;BME280;17145;49.902;8.680;'2023-12-07 09:46:46';100570;;;2;55
30343;BME280;17145;49.902;8.680;'2023-12-07 09:49:14';100570;;;2;55
30343;BME280;17145;49.902;8.680;'2023-12-07 09:51:41';100570;;;2;55
30343;BME280;17145;49.902;8.680;'2023-12-07 09:54:09';100570;;;2;55
30343;BME280;17145;49.902;8.680;'2023-12-07 09:56:36';100570;;;2;55
30343;BME280;17145;49.902;8.680;'2023-12-07 09:59:04';100570;;;2;55
30343;BME280;17145;49.902;8.680;'2023-12-07 10:01:31';100570;;;2;55
30343;BME280;17145;49.902;8.680;'2023-12-07 10:03:59';100570;;;2;55
30343;BME280;17145;49.902;8.680;'2023-12-07 10:06:26';100580;;;2;55
30343;BME280;17145;49.902;8.680;'2023-12-07 10:08:53';100580;;;2;55
30343;BME280;17145;49.902;8.680;'2023-12-07 10:11:21';100580;;;2;55
30343;BME280;17145;49.902;8.680;'2023-12-07 10:13:48';100580;;;2;55
30343;BME280;17145;49.902;8.680;'2023-12-07 10:16:16';100580;;;3;55
30343;BME280;17145;49.902;8.680;'2023-12-07 10:18:43';100570;;;3;55
30343;BME280;17145;49.902;8.680;'2023-12-07 10:21:11';100570;;;3;54
30343;BME280;17145;49.902;8.680;'2023-12-07 10:23:38';100570;;;3;54
30343;BME280;17145;49.902;8.680;'2023-12-07 10:26:06';100570;;;3;54
30343;BME280;17145;49.902;8.680;'2023-12-07 10:28:33';100570;;;3;55
30343;BME280;17145;49.902;8.680;'2023-12-07 10:31:01';100570;;;3;54
30343;BME280;17145;49.902;8.680;'2023-12-07 10:33:28';100570;;;2;54
30343;BME280;17145;49.902;8.680;'2023-12-07 10:35:55';100570;;;3;54
30343;BME280;17145;49.902;8.680;'2023-12-07 10:38:22';100570;;;3;54
30343;BME280;17145;49.902;8.680;'2023-12-07 10:40:53';100580;;;2;54
30343;BME280;17145;49.902;8.680;'2023-12-07 10:43:20';100580;;;3;54
30343;BME280;17145;49.902;8.680;'2023-12-07 10:45:50';100580;;;2;55
30343;BME280;17145;49.902;8.680;'2023-12-07 10:48:19';100590;;;3;55
30343;BME280;17145;49.902;8.680;'2023-12-07 10:50:46';100590;;;2;55
30343;BME280;17145;49.902;8.680;'2023-12-07 10:53:14';100590;;;3;55
30343;BME280;17145;49.902;8.680;'2023-12-07 10:55:42';100590;;;3;55
30343;BME280;17145;49.902;8.680;'2023-12-07 10:58:10';100590;;;3;55
30343;BME280;17145;49.902;8.680;'2023-12-07 11:00:37';100590;;;3;55
30343;BME280;17145;49.902;8.680;'2023-12-07 11:03:05';100580;;;3;54
30343;BME280;17145;49.902;8.680;'2023-12-07 11:05:33';100580;;;3;54
30343;BME280;17145;49.902;8.680;'2023-12-07 11:08:00';100580;;;3;54
30343;BME280;17145;49.902;8.680;'2023-12-07 11:10:28';100570;;;3;54
30343;BME280;17145;49.902;8.680;'2023-12-07 11:12:59';100560;;;3;53
30343;BME280;17145;49.902;8.680;'2023-12-07 11:15:26';100560;;;3;53
30343;BME280;17145;49.902;8.680;'2023-12-07 11:17:55';100550;;;3;54
30343;BME280;17145;49.902;8.680;'2023-12-07 11:20:24';100560;;;3;54
30343;BME280;17145;49.902;8.680;'2023-12-07 11:23:02';100550;;;3;54
30343;BME280;17145;49.902;8.680;'2023-12-07 11:25:30';100550;;;3;54
30343;BME280;17145;49.902;8.680;'2023-12-07 11:27:57';100550;;;3;54
30343;BME280;17145;49.902;8.680;'2023-12-07 11:30:27';100540;;;3;54
30343;BME280;17145;49.902;8.680;'2023-12-07 11:32:55';100540;;;3;54
30343;BME280;17145;49.902;8.680;'2023-12-07 11:35:22';100540;;;3;54
30343;BME280;17145;49.902;8.680;'2023-12-07 11:37:50';100530;;;3;54
30343;BME280;17145;49.902;8.680;'2023-12-07 11:40:17';100530;;;3;54
30343;BME280;17145;49.902;8.680;'2023-12-07 11:42:47';100530;;;3;54
30343;BME280;17145;49.902;8.680;'2023-12-07 11:45:16';100540;;;3;54
30343;BME280;17145;49.902;8.680;'2023-12-07 11:47:44';100540;;;3;55
30343;BME280;17145;49.902;8.680;'2023-12-07 11:50:17';100540;;;3;54
30343;BME280;17145;49.902;8.680;'2023-12-07 11:52:50';100540;;;2;53
30343;BME280;17145;49.902;8.680;'2023-12-07 11:55:21';100540;;;3;54
30343;BME280;17145;49.902;8.680;'2023-12-07 11:57:51';100540;;;3;54
30343;BME280;17145;49.902;8.680;'2023-12-07 12:00:19';100540;;;3;54
30343;BME280;17145;49.902;8.680;'2023-12-07 12:02:47';100540;;;3;54
30343;BME280;17145;49.902;8.680;'2023-12-07 12:05:14';100530;;;2;54
30343;BME280;17145;49.902;8.680;'2023-12-07 12:07:51';100530;;;2;54
30343;BME280;17145;49.902;8.680;'2023-12-07 12:10:25';100520;;;3;55
30343;BME280;17145;49.902;8.680;'2023-12-07 12:13:00';100520;;;3;54
30343;BME280;17145;49.902;8.680;'2023-12-07 12:15:28';100520;;;3;54
30343;BME280;17145;49.902;8.680;'2023-12-07 12:17:56';100510;;;3;54
30343;BME280;17145;49.902;8.680;'2023-12-07 12:20:32';100500;;;2;55
30343;BME280;17145;49.902;8.680;'2023-12-07 12:23:00';100490;;;2;55
30343;BME280;17145;49.902;8.680;'2023-12-07 12:25:27';100490;;;2;55
30343;BME280;17145;49.902;8.680;'2023-12-07 12:28:00';100490;;;2;55
30343;BME280;17145;49.902;8.680;'2023-12-07 12:30:30';100490;;;2;55
30343;BME280;17145;49.902;8.680;'2023-12-07 12:32:57';100480;;;3;55
30343;BME280;17145;49.902;8.680;'2023-12-07 12:35:25';100480;;;3;55
30343;BME280;17145;49.902;8.680;'2023-12-07 12:38:03';100480;;;3;55
30343;BME280;17145;49.902;8.680;'2023-12-07 12:40:30';100480;;;3;55
30343;BME280;17145;49.902;8.680;'2023-12-07 12:43:00';100470;;;3;55
30343;BME280;17145;49.902;8.680;'2023-12-07 12:45:39';100470;;;2;55
30343;BME280;17145;49.902;8.680;'2023-12-07 12:50:52';100460;;;3;55
30343;BME280;17145;49.902;8.680;'2023-12-07 12:53:22';100450;;;3;55
30343;BME280;17145;49.902;8.680;'2023-12-07 12:55:49';100440;;;2;55
30343;BME280;17145;49.902;8.680;'2023-12-07 12:58:17';100430;;;3;55
30343;BME280;17145;49.902;8.680;'2023-12-07 13:00:45';100430;;;3;55
30343;BME280;17145;49.902;8.680;'2023-12-07 13:03:13';100430;;;3;55
30343;BME280;17145;49.902;8.680;'2023-12-07 13:05:41';100420;;;3;55
30343;BME280;17145;49.902;8.680;'2023-12-07 13:08:09';100420;;;3;55
30343;BME280;17145;49.902;8.680;'2023-12-07 13:10:37';100410;;;3;54
30343;BME280;17145;49.902;8.680;'2023-12-07 13:13:05';100410;;;3;55
30343;BME280;17145;49.902;8.680;'2023-12-07 13:15:32';100400;;;3;55
30343;BME280;17145;49.902;8.680;'2023-12-07 13:18:00';100400;;;3;54
30343;BME280;17145;49.902;8.680;'2023-12-07 13:20:28';100390;;;2;55
30343;BME280;17145;49.902;8.680;'2023-12-07 13:22:56';100390;;;3;55
30343;BME280;17145;49.902;8.680;'2023-12-07 13:25:25';100390;;;3;55
30343;BME280;17145;49.902;8.680;'2023-12-07 13:27:54';100390;;;3;55
30343;BME280;17145;49.902;8.680;'2023-12-07 13:30:22';100390;;;3;54
30343;BME280;17145;49.902;8.680;'2023-12-07 13:32:51';100390;;;3;54
30343;BME280;17145;49.902;8.680;'2023-12-07 13:35:19';100380;;;2;55
30343;BME280;17145;49.902;8.680;'2023-12-07 13:37:47';100380;;;3;55
30343;BME280;17145;49.902;8.680;'2023-12-07 13:40:17';100380;;;2;55
30343;BME280;17145;49.902;8.680;'2023-12-07 13:42:46';100380;;;3;55
30343;BME280;17145;49.902;8.680;'2023-12-07 13:45:14';100380;;;3;55
30343;BME280;17145;49.902;8.680;'2023-12-07 13:47:43';100390;;;3;55
30343;BME280;17145;49.902;8.680;'2023-12-07 13:50:12';100390;;;3;55
30343;BME280;17145;49.902;8.680;'2023-12-07 13:52:40';100390;;;3;55
30343;BME280;17145;49.902;8.680;'2023-12-07 13:55:09';100380;;;2;55
30343;BME280;17145;49.902;8.680;'2023-12-07 13:57:37';100380;;;2;55
30343;BME280;17145;49.902;8.680;'2023-12-07 14:00:06';100380;;;3;55
30343;BME280;17145;49.902;8.680;'2023-12-07 14:02:34';100380;;;3;55
30343;BME280;17145;49.902;8.680;'2023-12-07 14:05:01';100380;;;3;55
30343;BME280;17145;49.902;8.680;'2023-12-07 14:07:28';100380;;;3;55
30343;BME280;17145;49.902;8.680;'2023-12-07 14:09:56';100370;;;3;55
30343;BME280;17145;49.902;8.680;'2023-12-07 14:12:23';100370;;;2;55
30343;BME280;17145;49.902;8.680;'2023-12-07 14:14:51';100370;;;3;55
30343;BME280;17145;49.902;8.680;'2023-12-07 14:17:18';100370;;;3;55
30343;BME280;17145;49.902;8.680;'2023-12-07 14:19:46';100360;;;3;55
30343;BME280;17145;49.902;8.680;'2023-12-07 14:22:13';100350;;;2;55
30343;BME280;17145;49.902;8.680;'2023-12-07 14:24:41';100350;;;3;56
30343;BME280;17145;49.902;8.680;'2023-12-07 14:27:08';100350;;;2;56
30343;BME280;17145;49.902;8.680;'2023-12-07 14:29:35';100350;;;3;55
30343;BME280;17145;49.902;8.680;'2023-12-07 14:32:04';100340;;;3;56
30343;BME280;17145;49.902;8.680;'2023-12-07 14:34:31';100340;;;3;56
30343;BME280;17145;49.902;8.680;'2023-12-07 14:36:58';100340;;;3;56
30343;BME280;17145;49.902;8.680;'2023-12-07 14:39:26';100340;;;3;56
30343;BME280;17145;49.902;8.680;'2023-12-07 14:41:55';100340;;;2;55
30343;BME280;17145;49.902;8.680;'2023-12-07 14:44:22';100340;;;3;55
30343;BME280;17145;49.902;8.680;'2023-12-07 14:46:50';100340;;;3;56
30343;BME280;17145;49.902;8.680;'2023-12-07 14:49:17';100340;;;3;56
30343;BME280;17145;49.902;8.680;'2023-12-07 14:51:45';100340;;;2;56
30343;BME280;17145;49.902;8.680;'2023-12-07 14:54:12';100340;;;3;56
30343;BME280;17145;49.902;8.680;'2023-12-07 14:56:40';100340;;;3;56
30343;BME280;17145;49.902;8.680;'2023-12-07 14:59:07';100340;;;3;56
30343;BME280;17145;49.902;8.680;'2023-12-07 15:01:35';100330;;;3;56
30343;BME280;17145;49.902;8.680;'2023-12-07 15:04:02';100330;;;3;56
30343;BME280;17145;49.902;8.680;'2023-12-07 15:06:30';100320;;;3;56
30343;BME280;17145;49.902;8.680;'2023-12-07 15:08:57';100310;;;3;56
30343;BME280;17145;49.902;8.680;'2023-12-07 15:11:24';100310;;;3;56
30343;BME280;17145;49.902;8.680;'2023-12-07 15:13:52';100310;;;3;56
30343;BME280;17145;49.902;8.680;'2023-12-07 15:16:20';100310;;;3;56
30343;BME280;17145;49.902;8.680;'2023-12-07 15:18:47';100300;;;3;56
30343;BME280;17145;49.902;8.680;'2023-12-07 15:21:19';100300;;;3;56
30343;BME280;17145;49.902;8.680;'2023-12-07 15:23:47';100290;;;3;55
30343;BME280;17145;49.902;8.680;'2023-12-07 15:26:14';100290;;;3;55